Time;durP1;ratioP1;P1;durP2;ratioP2;P2;SDS_P1;SDS_P2;PMS_P1;PMS_P2;Temp;Humidity;BMP_temperature;BMP_pressure;BME280_temperature;BME280_humidity;BME280_pressure;Samples;Min_cycle;Max_cycle;Signal;HPM_P1;HPM_P2
2020/12/29 00:00:18;;;;;;;15.98;9.23;;;;;;;-1.29;95.55;93587.13;5010584;28;20045;-58
2020/12/29 00:02:44;;;;;;;14.20;8.98;;;;;;;-1.35;95.47;93597.41;5022927;28;20556;-59
2020/12/29 00:05:09;;;;;;;14.32;8.88;;;;;;;-1.47;95.76;93594.22;4997766;28;20080;-60
2020/12/29 00:07:35;;;;;;;15.15;9.52;;;;;;;-1.82;96.35;93603.34;5022668;28;20041;-60
2020/12/29 00:10:00;;;;;;;14.40;8.85;;;;;;;-1.86;96.96;93597.16;5022970;28;20041;-61
2020/12/29 00:12:25;;;;;;;15.98;9.00;;;;;;;-1.81;97.80;93594.16;5003709;28;20057;-61
2020/12/29 00:14:51;;;;;;;17.88;9.73;;;;;;;-1.79;97.54;93618.72;5022853;28;20049;-60
2020/12/29 00:17:16;;;;;;;15.77;9.77;;;;;;;-1.71;97.48;93609.63;5011444;28;20051;-60
2020/12/29 00:19:41;;;;;;;15.10;9.63;;;;;;;-1.73;97.28;93606.53;5015319;28;20561;-60
2020/12/29 00:22:07;;;;;;;15.75;9.15;;;;;;;-1.71;97.60;93598.91;5013505;28;20041;-60
2020/12/29 00:24:32;;;;;;;14.05;9.18;;;;;;;-1.63;97.51;93600.53;5023049;28;20049;-59
2020/12/29 00:26:58;;;;;;;14.90;9.40;;;;;;;-1.46;97.46;93609.16;5023792;28;20042;-61
2020/12/29 00:29:24;;;;;;;17.50;9.55;;;;;;;-1.45;97.18;93618.78;5017014;28;20045;-58
2020/12/29 00:31:49;;;;;;;15.77;9.07;;;;;;;-1.40;97.45;93621.91;4995670;28;20096;-57
2020/12/29 00:34:15;;;;;;;14.30;8.27;;;;;;;-1.27;97.01;93621.66;5017526;28;20077;-58
2020/12/29 00:36:40;;;;;;;12.88;7.57;;;;;;;-1.16;96.82;93622.56;5022219;28;20044;-61
2020/12/29 00:39:06;;;;;;;12.32;8.38;;;;;;;-1.15;96.46;93626.81;5016028;28;20133;-61
2020/12/29 00:41:32;;;;;;;12.73;7.97;;;;;;;-1.21;96.06;93639.75;5014434;28;20042;-58
2020/12/29 00:43:57;;;;;;;11.68;7.53;;;;;;;-1.14;96.18;93643.69;5026769;28;20096;-61
2020/12/29 00:46:22;;;;;;;13.13;8.57;;;;;;;-1.12;95.93;93652.13;5019379;28;20160;-60
2020/12/29 00:48:49;;;;;;;12.10;7.38;;;;;;;-1.26;95.38;93650.06;5023068;28;20045;-57
2020/12/29 00:51:17;;;;;;;15.07;8.18;;;;;;;-1.18;95.55;93646.31;5000752;28;20460;-59
2020/12/29 00:53:43;;;;;;;13.65;7.63;;;;;;;-0.92;94.93;93628.56;5016001;28;20052;-59
2020/12/29 00:56:09;;;;;;;12.70;8.07;;;;;;;-0.97;94.67;93627.75;4993521;28;20049;-59
2020/12/29 00:58:36;;;;;;;12.25;8.13;;;;;;;-0.85;94.10;93629.41;5000750;28;20038;-61
2020/12/29 01:01:04;;;;;;;25.48;12.02;;;;;;;-1.15;94.39;93626.81;5012104;28;20066;-57
2020/12/29 01:03:29;;;;;;;12.93;8.52;;;;;;;-1.00;94.47;93635.78;5031319;28;20053;-60
2020/12/29 01:05:55;;;;;;;12.20;7.45;;;;;;;-0.85;94.19;93640.16;5042166;28;20056;-60
2020/12/29 01:08:21;;;;;;;11.85;7.28;;;;;;;-0.94;93.84;93634.28;5029276;28;20041;-59
2020/12/29 01:10:53;;;;;;;11.63;8.00;;;;;;;-1.00;93.99;93638.47;5047949;28;20049;-58
2020/12/29 01:13:19;;;;;;;16.48;8.45;;;;;;;-0.89;94.11;93641.25;5053382;28;20041;-58
2020/12/29 01:15:46;;;;;;;13.93;8.18;;;;;;;-0.95;94.29;93646.19;5037837;28;20049;-56
2020/12/29 01:18:11;;;;;;;13.02;8.45;;;;;;;-1.07;94.36;93633.78;5035277;28;20037;-57
2020/12/29 01:20:36;;;;;;;12.00;7.88;;;;;;;-1.12;95.09;93644.06;5034427;28;20083;-57
2020/12/29 01:23:02;;;;;;;17.55;10.20;;;;;;;-1.21;95.30;93655.88;5035725;28;20045;-61
2020/12/29 01:25:27;;;;;;;16.75;9.38;;;;;;;-1.24;95.40;93658.50;5014568;28;20108;-60
2020/12/29 01:27:53;;;;;;;16.05;9.50;;;;;;;-1.26;95.53;93658.91;5040266;28;20102;-56
2020/12/29 01:30:18;;;;;;;16.38;9.43;;;;;;;-1.28;95.78;93671.88;5032959;28;20037;-60
2020/12/29 01:32:44;;;;;;;14.77;9.55;;;;;;;-1.29;96.00;93680.34;5011428;28;20044;-58
2020/12/29 01:35:10;;;;;;;14.73;8.85;;;;;;;-0.99;95.08;93686.47;5027347;28;20704;-59
2020/12/29 01:37:36;;;;;;;13.65;8.77;;;;;;;-1.07;94.63;93687.50;5041320;28;20048;-58
2020/12/29 01:40:03;;;;;;;13.80;9.07;;;;;;;-1.11;94.89;93689.38;5039132;28;20049;-61
2020/12/29 01:42:29;;;;;;;13.85;8.90;;;;;;;-1.22;95.62;93699.22;5029602;28;20103;-59
2020/12/29 01:44:54;;;;;;;15.23;9.60;;;;;;;-1.30;96.22;93668.81;5030386;28;20049;-60
2020/12/29 01:47:21;;;;;;;16.38;9.82;;;;;;;-1.21;95.98;93687.31;5032338;28;20048;-55
2020/12/29 01:49:47;;;;;;;15.45;10.05;;;;;;;-1.12;96.23;93684.38;5033883;28;20135;-60
2020/12/29 01:52:13;;;;;;;13.98;9.00;;;;;;;-1.18;96.24;93686.59;5030270;28;21033;-58
2020/12/29 01:54:40;;;;;;;12.80;8.95;;;;;;;-0.95;95.91;93675.75;5033545;28;20044;-61
2020/12/29 01:57:06;;;;;;;14.70;9.02;;;;;;;-0.92;94.89;93676.91;5033250;28;20131;-59
2020/12/29 01:59:32;;;;;;;14.00;8.98;;;;;;;-0.95;95.13;93681.13;5040855;28;20132;-60
2020/12/29 02:01:58;;;;;;;14.88;8.82;;;;;;;-0.83;94.93;93688.94;5041106;28;20041;-59
2020/12/29 02:04:23;;;;;;;13.70;8.52;;;;;;;-0.81;94.98;93688.56;5038598;28;20051;-59
2020/12/29 02:06:49;;;;;;;11.35;7.70;;;;;;;-0.70;94.54;93680.59;5047344;28;20060;-61
2020/12/29 02:09:15;;;;;;;10.70;7.43;;;;;;;-0.73;93.49;93676.75;5014272;28;20300;-59
2020/12/29 02:11:41;;;;;;;12.65;7.78;;;;;;;-0.69;93.44;93676.78;5021682;28;20318;-59
2020/12/29 02:14:08;;;;;;;13.05;8.25;;;;;;;-0.65;92.96;93677.59;5034744;28;20041;-58
2020/12/29 02:16:41;;;;;;;12.60;6.97;;;;;;;-0.48;93.03;93668.94;5041251;28;20506;-59
2020/12/29 02:19:07;;;;;;;9.10;6.20;;;;;;;-0.51;92.56;93690.41;5035390;28;20048;-60
2020/12/29 02:21:34;;;;;;;14.50;6.68;;;;;;;-0.42;91.93;93705.09;5039676;28;20045;-60
2020/12/29 02:24:01;;;;;;;11.13;7.00;;;;;;;-0.42;92.12;93686.28;5044600;28;20444;-61
2020/12/29 02:26:28;;;;;;;15.35;8.40;;;;;;;-0.42;91.65;93691.66;5037195;28;20067;-60
2020/12/29 02:29:04;;;;;;;12.05;6.80;;;;;;;-0.44;91.84;93703.94;5036801;28;20041;-61
2020/12/29 02:31:29;;;;;;;10.25;6.15;;;;;;;-0.50;91.88;93706.19;5022256;28;20037;-60
2020/12/29 02:33:55;;;;;;;9.98;6.28;;;;;;;-0.56;91.97;93713.00;5041248;28;20107;-59
2020/12/29 02:36:20;;;;;;;10.25;6.18;;;;;;;-0.51;92.51;93718.06;5032597;28;20048;-60
2020/12/29 02:38:46;;;;;;;10.63;6.63;;;;;;;-0.53;92.40;93725.72;5039573;28;20052;-59
2020/12/29 02:41:13;;;;;;;10.10;6.40;;;;;;;-0.63;92.71;93723.69;5035231;28;20045;-58
2020/12/29 02:43:38;;;;;;;8.05;4.70;;;;;;;-0.57;92.34;93724.16;5022231;28;20370;-59
2020/12/29 02:46:04;;;;;;;6.50;4.32;;;;;;;-0.10;90.01;93736.91;5037020;28;20060;-62
2020/12/29 02:48:29;;;;;;;6.53;4.03;;;;;;;-0.02;89.38;93746.59;5041179;28;20041;-58
2020/12/29 02:50:55;;;;;;;6.57;4.35;;;;;;;0.42;86.02;93755.78;5039690;28;20060;-61
2020/12/29 02:53:20;;;;;;;10.43;5.80;;;;;;;0.23;87.76;93748.72;5018323;28;20914;-61
2020/12/29 02:55:46;;;;;;;8.50;6.28;;;;;;;0.06;88.61;93758.19;5040211;28;20049;-60
2020/12/29 02:58:11;;;;;;;8.27;5.55;;;;;;;-0.06;89.34;93761.91;5034129;28;20037;-59
2020/12/29 03:00:36;;;;;;;10.07;6.53;;;;;;;-0.15;90.32;93769.53;5041062;28;20045;-62
2020/12/29 03:03:02;;;;;;;8.70;5.45;;;;;;;-0.13;90.75;93771.84;5020478;28;20045;-61
2020/12/29 03:05:28;;;;;;;7.95;6.03;;;;;;;-0.26;90.65;93771.34;5035514;28;20045;-60
2020/12/29 03:07:53;;;;;;;7.97;5.88;;;;;;;-0.30;90.65;93765.91;5038459;28;20131;-59
2020/12/29 03:10:18;;;;;;;8.73;6.10;;;;;;;-0.26;90.79;93763.25;5036111;28;20045;-60
2020/12/29 03:12:44;;;;;;;9.80;6.45;;;;;;;-0.40;91.47;93772.75;5039351;28;20514;-59
2020/12/29 03:15:10;;;;;;;10.05;6.00;;;;;;;-0.53;91.87;93767.97;5035718;28;20033;-58
2020/12/29 03:17:35;;;;;;;9.38;5.95;;;;;;;-0.52;92.14;93780.25;5039879;28;20059;-59
2020/12/29 03:20:05;;;;;;;8.98;5.82;;;;;;;-0.61;91.93;93775.97;5044258;28;20056;-62
2020/12/29 03:22:31;;;;;;;;;;;;;;;-0.56;92.70;93790.97;5043084;28;20125;-59
2020/12/29 03:24:57;;;;;;;9.05;5.45;;;;;;;-0.58;92.24;93779.81;5044582;28;20336;-61
2020/12/29 03:27:22;;;;;;;7.63;4.72;;;;;;;-0.73;92.08;93795.00;5039055;28;20049;-60
2020/12/29 03:29:48;;;;;;;9.32;5.40;;;;;;;-0.86;92.13;93789.09;5042476;28;20037;-61
2020/12/29 03:32:13;;;;;;;12.23;6.90;;;;;;;-0.96;92.94;93787.81;5037123;28;20041;-62
2020/12/29 03:34:39;;;;;;;10.88;6.90;;;;;;;-1.00;93.60;93780.84;5043730;28;20037;-58
2020/12/29 03:37:09;;;;;;;10.13;6.88;;;;;;;-1.04;93.40;93777.34;5038976;28;20116;-60
2020/12/29 03:39:36;;;;;;;9.35;6.20;;;;;;;-1.12;93.78;93778.38;5043441;28;20048;-60
2020/12/29 03:42:02;;;;;;;10.30;6.13;;;;;;;-1.10;94.03;93787.59;5042859;28;20045;-59
2020/12/29 03:44:27;;;;;;;10.90;6.25;;;;;;;-1.07;94.39;93794.19;5040365;28;20082;-61
2020/12/29 03:46:53;;;;;;;11.15;6.70;;;;;;;-1.09;94.10;93804.53;5041189;28;20141;-60
2020/12/29 03:49:19;;;;;;;9.40;6.63;;;;;;;-1.11;94.23;93807.56;5020247;28;20509;-61
2020/12/29 03:51:45;;;;;;;11.25;6.68;;;;;;;-0.88;93.66;93806.69;5043757;28;20033;-57
2020/12/29 03:54:11;;;;;;;8.77;5.60;;;;;;;-0.88;92.60;93810.19;5035389;28;20037;-62
2020/12/29 03:56:36;;;;;;;9.15;5.10;;;;;;;-1.00;92.36;93823.84;5057219;28;20041;-57
2020/12/29 03:59:02;;;;;;;7.82;5.40;;;;;;;-1.12;92.71;93822.13;5042448;28;20043;-60
2020/12/29 04:01:28;;;;;;;7.85;5.25;;;;;;;-1.20;92.38;93828.53;5021389;28;20067;-60
2020/12/29 04:03:53;;;;;;;6.72;4.40;;;;;;;-1.16;92.52;93840.88;5042962;28;20095;-60
2020/12/29 04:06:19;;;;;;;7.28;4.93;;;;;;;-1.11;92.22;93841.72;5036603;28;20033;-60
2020/12/29 04:08:44;;;;;;;10.30;5.32;;;;;;;-1.08;92.15;93835.59;5045464;28;20041;-62
2020/12/29 04:11:11;;;;;;;8.38;5.05;;;;;;;-1.06;92.26;93847.56;5039565;28;20359;-61
2020/12/29 04:13:37;;;;;;;7.55;5.20;;;;;;;-0.88;91.51;93853.19;5041616;28;20438;-59
2020/12/29 04:16:02;;;;;;;9.10;5.13;;;;;;;-0.90;91.26;93857.34;5040793;28;20037;-62
2020/12/29 04:18:28;;;;;;;6.45;4.40;;;;;;;-0.99;91.39;93863.78;5039399;28;20453;-60
2020/12/29 04:20:53;;;;;;;6.57;4.68;;;;;;;-0.66;90.60;93866.91;5043300;28;20088;-60
2020/12/29 04:23:19;;;;;;;14.10;7.03;;;;;;;-0.68;90.07;93866.50;5036875;28;20118;-59
2020/12/29 04:25:44;;;;;;;7.68;5.03;;;;;;;-0.81;90.03;93858.66;5042618;28;20061;-59
2020/12/29 04:28:10;;;;;;;4.88;4.20;;;;;;;-0.85;89.93;93851.66;5036852;28;20102;-60
2020/12/29 04:30:35;;;;;;;7.70;4.90;;;;;;;-0.94;89.98;93862.66;5041764;28;20044;-60
2020/12/29 04:33:00;;;;;;;8.88;4.97;;;;;;;-0.97;90.35;93872.25;5023221;28;20087;-61
2020/12/29 04:35:26;;;;;;;7.57;4.30;;;;;;;-0.90;90.44;93876.16;5036180;28;20118;-60
2020/12/29 04:37:52;;;;;;;6.15;3.97;;;;;;;-0.86;90.48;93880.47;5039872;28;20045;-60
2020/12/29 04:40:17;;;;;;;5.38;3.83;;;;;;;-0.65;90.03;93882.69;5036209;28;20401;-61
2020/12/29 04:42:43;;;;;;;5.63;3.17;;;;;;;-0.68;89.07;93890.69;5040268;28;20041;-60
2020/12/29 04:45:08;;;;;;;7.95;3.38;;;;;;;-0.63;88.04;93893.84;5036035;28;20045;-63
2020/12/29 04:47:35;;;;;;;6.63;3.60;;;;;;;-0.56;88.67;93895.81;5025704;28;20048;-61
2020/12/29 04:50:01;;;;;;;5.95;3.53;;;;;;;-0.60;88.60;93897.69;5040713;28;20051;-61
2020/12/29 04:52:27;;;;;;;9.45;4.38;;;;;;;-0.69;88.79;93897.97;5035205;28;20409;-61
2020/12/29 04:54:54;;;;;;;17.13;8.38;;;;;;;-0.66;88.73;93904.53;5042048;28;20045;-58
2020/12/29 04:57:22;;;;;;;15.00;7.20;;;;;;;-0.72;88.56;93911.34;5031286;28;20112;-61
2020/12/29 04:59:47;;;;;;;7.03;3.50;;;;;;;-0.59;87.59;93920.75;5048683;28;20041;-61
2020/12/29 05:02:12;;;;;;;10.52;5.47;;;;;;;-0.57;88.02;93912.34;5037397;28;20044;-60
2020/12/29 05:04:38;;;;;;;7.35;3.20;;;;;;;-0.53;88.27;93907.78;5041621;28;20501;-60
2020/12/29 05:07:03;;;;;;;5.75;3.90;;;;;;;-0.74;88.40;93914.41;5020084;28;20045;-62
2020/12/29 05:09:29;;;;;;;6.53;4.25;;;;;;;-1.04;90.66;93922.41;5039743;28;20040;-60
2020/12/29 05:11:55;;;;;;;4.32;2.95;;;;;;;-0.88;90.56;93930.31;5022312;28;20068;-59
2020/12/29 05:14:23;;;;;;;4.78;2.90;;;;;;;-0.71;89.78;93934.41;5028899;28;20044;-60
2020/12/29 05:16:50;;;;;;;4.83;2.50;;;;;;;-0.73;89.53;93944.75;5041882;28;20040;-61
2020/12/29 05:19:19;;;;;;;4.10;2.45;;;;;;;-0.66;89.15;93950.22;5035806;28;20045;-60
2020/12/29 05:21:45;;;;;;;3.85;2.40;;;;;;;-0.64;89.13;93958.72;5040503;28;20151;-61
2020/12/29 05:24:15;;;;;;;6.72;4.28;;;;;;;-0.54;88.56;93966.16;5035691;28;20132;-60
2020/12/29 05:26:42;;;;;;;9.15;4.50;;;;;;;-0.71;89.45;93962.06;5025536;28;20045;-61
2020/12/29 05:29:11;;;;;;;6.00;3.97;;;;;;;-0.81;89.41;93966.16;5035539;28;20048;-58
2020/12/29 05:31:37;;;;;;;5.57;3.92;;;;;;;-0.86;90.03;93979.13;5023635;28;20489;-60
2020/12/29 05:34:04;;;;;;;7.38;4.70;;;;;;;-1.03;90.50;93973.06;5040004;28;20037;-62
2020/12/29 05:36:35;;;;;;;4.80;3.45;;;;;;;-1.05;90.82;93969.19;5039579;28;20052;-58
2020/12/29 05:39:07;;;;;;;8.40;4.35;;;;;;;-1.06;90.79;93973.00;5038493;28;20086;-61
2020/12/29 05:41:45;;;;;;;5.32;4.00;;;;;;;-0.93;90.09;93981.69;5039500;28;20076;-57
2020/12/29 05:44:14;;;;;;;4.95;3.95;;;;;;;-0.94;89.87;93997.00;5032543;28;20029;-61
2020/12/29 05:46:39;;;;;;;6.95;4.07;;;;;;;-0.97;90.37;93992.38;5040586;28;20040;-60
2020/12/29 05:49:05;;;;;;;6.60;4.40;;;;;;;-0.94;90.49;94015.81;5035453;28;20378;-61
2020/12/29 05:51:33;;;;;;;6.30;4.35;;;;;;;-0.98;90.82;94018.44;5040111;28;20044;-59
2020/12/29 05:54:01;;;;;;;5.80;3.67;;;;;;;-1.08;90.82;94018.25;5040303;28;20106;-60
2020/12/29 05:56:29;;;;;;;6.80;3.70;;;;;;;-1.04;91.07;94021.81;5036073;28;20049;-59
2020/12/29 05:58:55;;;;;;;5.28;3.25;;;;;;;-0.98;90.86;94028.44;5025451;28;20051;-60
2020/12/29 06:01:21;;;;;;;6.07;3.03;;;;;;;-1.13;91.22;94019.34;5034456;28;20044;-58
2020/12/29 06:03:50;;;;;;;5.60;3.00;;;;;;;-1.10;91.31;94021.31;5041018;28;20037;-60
2020/12/29 06:06:15;;;;;;;4.30;3.35;;;;;;;-1.02;91.42;94030.28;5036353;28;20363;-60
2020/12/29 06:08:42;;;;;;;11.90;3.92;;;;;;;-1.11;91.12;94027.81;5022860;28;20041;-60
2020/12/29 06:11:12;;;;;;;6.20;3.67;;;;;;;-1.17;91.47;94038.09;5036987;28;20517;-59
2020/12/29 06:13:38;;;;;;;4.82;3.58;;;;;;;-1.26;91.74;94042.91;5041174;28;20041;-59
2020/12/29 06:16:04;;;;;;;7.22;3.20;;;;;;;-1.10;91.57;94053.53;5037507;28;20485;-62
2020/12/29 06:18:37;;;;;;;6.55;3.50;;;;;;;-0.98;91.07;94069.50;5040454;28;20076;-61
2020/12/29 06:21:07;;;;;;;4.28;3.20;;;;;;;-1.05;91.34;94058.63;5036834;28;20137;-62
2020/12/29 06:23:42;;;;;;;;;;;;;;;-0.98;90.85;94064.13;5039953;28;20128;-61
2020/12/29 06:26:08;;;;;;;3.80;2.95;;;;;;;-0.89;90.39;94071.97;5034657;28;19920;-57
2020/12/29 06:28:43;;;;;;;6.18;3.28;;;;;;;-0.88;90.44;94064.66;5001848;28;20044;-59
2020/12/29 06:31:10;;;;;;;4.32;3.13;;;;;;;-0.98;90.54;94074.88;5033194;28;20418;-60
2020/12/29 06:33:38;;;;;;;5.88;3.03;;;;;;;-0.79;93.14;94092.09;5033842;28;20152;-58
2020/12/29 06:36:05;;;;;;;7.38;3.40;;;;;;;-0.71;93.22;94087.63;5051735;28;20560;-62
2020/12/29 06:38:33;;;;;;;6.57;3.75;;;;;;;-0.72;91.71;94099.50;5046981;28;20432;-58
2020/12/29 06:41:00;;;;;;;7.82;3.28;;;;;;;-0.86;91.00;94097.34;5038361;28;20071;-60
2020/12/29 06:43:26;;;;;;;7.10;2.72;;;;;;;-0.82;90.53;94107.03;5016930;28;20148;-58
2020/12/29 06:45:51;;;;;;;7.00;2.75;;;;;;;-0.80;90.71;94103.97;5039646;28;20136;-58
2020/12/29 06:48:18;;;;;;;5.97;3.40;;;;;;;-0.72;89.90;94104.88;5035163;28;20060;-60
2020/12/29 06:50:44;;;;;;;7.65;3.30;;;;;;;-0.54;89.93;94105.97;5039958;28;20080;-60
2020/12/29 06:53:14;;;;;;;4.97;2.85;;;;;;;-0.48;89.76;94109.13;5031587;28;20037;-57
2020/12/29 06:55:44;;;;;;;6.70;3.30;;;;;;;-0.46;89.37;94114.94;5032019;28;20132;-60
2020/12/29 06:58:12;;;;;;;;;;;;;;;-0.51;89.06;94116.00;5038930;28;20099;-59
2020/12/29 07:00:37;;;;;;;4.50;1.80;;;;;;;0.13;88.04;94127.00;5043973;28;20369;-58
2020/12/29 07:03:03;;;;;;;2.92;1.83;;;;;;;0.40;86.33;94135.06;5030960;28;20076;-62
2020/12/29 07:05:34;;;;;;;2.80;1.70;;;;;;;0.53;85.53;94141.00;5044844;28;20079;-58
2020/12/29 07:08:05;;;;;;;5.85;2.45;;;;;;;0.81;84.54;94137.91;5042912;28;20063;-60
2020/12/29 07:10:42;;;;;;;2.80;1.35;;;;;;;0.93;84.45;94150.34;5044038;28;20075;-58
2020/12/29 07:13:12;;;;;;;4.15;1.30;;;;;;;1.01;84.55;94141.22;5020438;28;20083;-62
2020/12/29 07:15:53;;;;;;;6.05;1.42;;;;;;;1.18;84.10;94149.88;5044954;28;20045;-61
2020/12/29 07:18:25;;;;;;;2.65;1.20;;;;;;;1.32;83.08;94161.59;5041522;28;20091;-59
2020/12/29 07:20:55;;;;;;;3.53;1.40;;;;;;;1.48;83.58;94164.06;5042193;28;20044;-60
2020/12/29 07:23:24;;;;;;;4.90;1.15;;;;;;;1.55;83.25;94171.47;5038423;28;20501;-58
2020/12/29 07:25:52;;;;;;;5.88;1.73;;;;;;;1.42;84.02;94170.16;5010770;28;20474;-60
2020/12/29 07:28:22;;;;;;;5.43;1.40;;;;;;;1.51;83.01;94170.63;5009247;28;20044;-60
2020/12/29 07:30:49;;;;;;;6.80;1.95;;;;;;;1.38;83.81;94183.59;5038150;28;20067;-60
2020/12/29 07:33:21;;;;;;;6.75;1.67;;;;;;;1.41;83.73;94184.81;5037428;28;20075;-59
2020/12/29 07:35:46;;;;;;;2.90;1.30;;;;;;;1.22;84.45;94183.81;5040737;28;20402;-61
2020/12/29 07:38:20;;;;;;;5.35;1.20;;;;;;;1.11;85.44;94191.78;5035915;28;20037;-58
2020/12/29 07:40:46;;;;;;;4.45;2.15;;;;;;;1.17;85.21;94196.84;5026157;28;20033;-60
2020/12/29 07:43:11;;;;;;;4.38;1.23;;;;;;;1.14;85.87;94201.06;5044065;28;20059;-62
2020/12/29 07:45:37;;;;;;;3.20;1.00;;;;;;;1.09;85.61;94212.94;5059067;28;20072;-61
2020/12/29 07:48:05;;;;;;;4.28;2.28;;;;;;;1.26;85.52;94227.78;5054807;28;20109;-62
2020/12/29 07:50:32;;;;;;;2.90;2.13;;;;;;;1.25;84.74;94222.75;5043043;28;20102;-59
2020/12/29 07:53:06;;;;;;;7.65;2.40;;;;;;;1.71;81.35;94231.38;5042850;28;20048;-61
2020/12/29 07:55:32;;;;;;;3.80;1.40;;;;;;;1.71;82.19;94242.16;5042703;28;20048;-60
2020/12/29 07:58:02;;;;;;;3.83;1.35;;;;;;;2.03;80.74;94255.19;5042473;28;20045;-60
2020/12/29 08:00:27;;;;;;;5.68;2.05;;;;;;;1.90;81.65;94262.78;5038968;28;20037;-61
2020/12/29 08:02:53;;;;;;;7.88;1.60;;;;;;;1.93;81.48;94263.97;5023215;28;20421;-60
2020/12/29 08:05:27;;;;;;;2.25;1.40;;;;;;;2.04;80.61;94270.25;5036954;28;20036;-59
2020/12/29 08:07:58;;;;;;;3.28;1.77;;;;;;;2.38;77.53;94266.72;5042698;28;20491;-61
2020/12/29 08:10:31;;;;;;;3.80;1.70;;;;;;;2.36;78.16;94266.28;5036102;28;20961;-58
2020/12/29 08:12:58;;;;;;;4.60;2.10;;;;;;;2.46;75.93;94266.38;5041046;28;20151;-61
2020/12/29 08:15:31;;;;;;;3.40;1.83;;;;;;;2.32;77.43;94266.25;5036810;28;20834;-61
2020/12/29 08:18:00;;;;;;;4.57;1.27;;;;;;;2.44;75.64;94276.78;5042824;28;20048;-59
2020/12/29 08:20:25;;;;;;;2.72;1.48;;;;;;;2.59;75.02;94285.78;5037171;28;20126;-59
2020/12/29 08:22:51;;;;;;;2.20;1.15;;;;;;;2.64;74.74;94293.53;5042999;28;20497;-61
2020/12/29 08:25:17;;;;;;;1.65;1.02;;;;;;;2.75;74.61;94304.44;5038127;28;20440;-61
2020/12/29 08:27:43;;;;;;;1.77;0.98;;;;;;;2.61;75.94;94307.00;5041487;28;20044;-62
2020/12/29 08:30:09;;;;;;;3.83;1.02;;;;;;;2.79;75.47;94317.97;5036189;28;20111;-59
2020/12/29 08:32:35;;;;;;;2.10;1.10;;;;;;;2.60;76.89;94319.75;5040263;28;20397;-59
2020/12/29 08:35:02;;;;;;;4.20;1.15;;;;;;;2.68;77.26;94320.59;5040662;28;20053;-60
2020/12/29 08:37:30;;;;;;;2.53;1.30;;;;;;;2.91;76.62;94327.72;5039222;28;20500;-60
2020/12/29 08:40:17;;;;;;;1.73;1.08;;;;;;;3.15;74.87;94326.34;5033543;28;20107;-61
2020/12/29 08:42:48;;;;;;;2.13;1.20;;;;;;;3.43;73.64;94321.09;5041331;28;20125;-61
2020/12/29 08:45:15;;;;;;;4.47;1.27;;;;;;;3.56;73.09;94331.59;5036784;28;20441;-60
2020/12/29 08:47:42;;;;;;;4.82;1.40;;;;;;;3.51;72.52;94343.59;5040488;28;20044;-61
2020/12/29 08:50:28;;;;;;;4.75;1.60;;;;;;;3.36;74.00;94344.66;5037969;28;20044;-61
2020/12/29 08:53:04;;;;;;;4.38;1.38;;;;;;;3.66;71.93;94352.53;5041642;28;20440;-61
2020/12/29 08:55:31;;;;;;;4.80;1.60;;;;;;;3.68;72.71;94352.94;5041147;28;20040;-61
2020/12/29 08:57:58;;;;;;;4.60;1.08;;;;;;;4.07;72.21;94367.78;5042689;28;20071;-60
2020/12/29 09:00:25;;;;;;;5.10;1.15;;;;;;;4.80;69.88;94370.28;5036529;28;20193;-61
2020/12/29 09:02:51;;;;;;;2.78;1.23;;;;;;;4.98;70.55;94365.66;5039821;28;20127;-61
2020/12/29 09:05:29;;;;;;;6.55;1.25;;;;;;;5.22;68.58;94365.25;5037135;28;20041;-60
2020/12/29 09:07:56;;;;;;;2.92;1.00;;;;;;;5.34;65.95;94370.28;5041840;28;20055;-59
2020/12/29 09:10:22;;;;;;;2.15;1.15;;;;;;;4.91;68.47;94378.44;5028421;28;20071;-61
2020/12/29 09:12:48;;;;;;;2.70;1.00;;;;;;;4.50;69.23;94381.47;5041568;28;20068;-61
2020/12/29 09:15:24;;;;;;;2.17;1.20;;;;;;;4.39;69.96;94393.09;5021530;28;20040;-56
2020/12/29 09:17:55;;;;;;;7.30;1.67;;;;;;;4.45;69.94;94393.47;5026078;28;20051;-61
2020/12/29 09:20:26;;;;;;;4.80;1.67;;;;;;;4.24;72.07;94385.28;5011433;28;20116;-61
2020/12/29 09:23:09;;;;;;;2.38;0.98;;;;;;;4.17;72.66;94396.88;5039889;28;20560;-61
2020/12/29 09:25:43;;;;;;;2.50;1.00;;;;;;;4.15;72.10;94402.66;5020783;28;20387;-60
2020/12/29 09:28:23;;;;;;;2.90;1.20;;;;;;;4.38;71.33;94407.00;5024493;28;20052;-61
2020/12/29 09:31:07;;;;;;;1.23;0.90;;;;;;;4.47;71.17;94412.84;5040083;28;20037;-61
2020/12/29 09:33:34;;;;;;;7.95;1.80;;;;;;;4.45;71.50;94411.66;5003176;28;20049;-61
2020/12/29 09:36:03;;;;;;;4.07;1.30;;;;;;;4.66;70.45;94419.09;5026350;28;20045;-62
2020/12/29 09:38:30;;;;;;;7.57;1.45;;;;;;;4.46;71.26;94418.66;5007883;28;20040;-59
2020/12/29 09:40:55;;;;;;;4.72;1.33;;;;;;;4.53;70.71;94432.22;5038509;28;20051;-61
2020/12/29 09:43:24;;;;;;;2.17;1.00;;;;;;;4.55;70.36;94430.66;5036477;28;21960;-62
2020/12/29 09:45:50;;;;;;;5.82;1.55;;;;;;;4.57;71.72;94428.38;5040684;28;20045;-61
2020/12/29 09:48:16;;;;;;;3.63;1.40;;;;;;;4.62;71.37;94450.84;5036205;28;20123;-59
2020/12/29 09:50:42;;;;;;;2.75;1.35;;;;;;;4.58;72.21;94448.88;5041359;28;20098;-60
2020/12/29 09:53:08;;;;;;;4.93;1.63;;;;;;;4.45;72.00;94466.66;5033743;28;20040;-61
2020/12/29 09:55:33;;;;;;;6.68;1.50;;;;;;;4.51;72.02;94461.66;5020831;28;20045;-61
2020/12/29 09:57:58;;;;;;;2.78;1.20;;;;;;;4.27;73.24;94473.94;5040133;28;20397;-60
2020/12/29 10:00:24;;;;;;;5.75;1.20;;;;;;;4.25;74.10;94481.66;5029963;28;20486;-62
2020/12/29 10:02:49;;;;;;;3.88;1.70;;;;;;;4.35;74.74;94479.00;5032720;28;20064;-58
2020/12/29 10:05:15;;;;;;;4.18;1.10;;;;;;;4.21;73.52;94485.16;5034241;28;20094;-60
2020/12/29 10:07:45;;;;;;;6.25;1.30;;;;;;;4.27;73.52;94492.91;5038604;28;20132;-61
2020/12/29 10:10:10;;;;;;;5.00;2.03;;;;;;;4.49;72.52;94489.13;5030883;28;20428;-61
2020/12/29 10:12:35;;;;;;;2.80;1.75;;;;;;;4.63;73.26;94495.75;5034271;28;20048;-58
2020/12/29 10:15:01;;;;;;;6.78;1.30;;;;;;;4.49;73.39;94504.63;5029681;28;20657;-58
2020/12/29 10:17:27;;;;;;;5.13;1.00;;;;;;;4.36;71.45;94504.97;5027947;28;20437;-59
2020/12/29 10:19:52;;;;;;;2.92;1.30;;;;;;;4.35;72.03;94494.50;5030135;28;20064;-60
2020/12/29 10:22:18;;;;;;;4.78;1.88;;;;;;;4.54;71.23;94509.69;5009602;28;20047;-61
2020/12/29 10:24:43;;;;;;;1.75;1.08;;;;;;;4.48;71.13;94509.25;5026616;28;20106;-61
2020/12/29 10:27:08;;;;;;;2.47;1.08;;;;;;;4.48;72.43;94522.81;5036561;28;20045;-61
2020/12/29 10:29:34;;;;;;;5.00;1.23;;;;;;;4.55;71.50;94524.78;5039160;28;20053;-61
2020/12/29 10:31:59;;;;;;;6.63;2.80;;;;;;;4.69;70.37;94516.72;5031609;28;20068;-60
2020/12/29 10:34:25;;;;;;;16.70;5.40;;;;;;;4.84;69.74;94519.47;5016509;28;20183;-60
2020/12/29 10:36:50;;;;;;;4.55;1.45;;;;;;;4.92;69.15;94516.41;5038101;28;20048;-59
2020/12/29 10:39:16;;;;;;;4.75;1.50;;;;;;;5.20;68.88;94517.63;5035206;28;20076;-59
2020/12/29 10:41:41;;;;;;;3.47;1.25;;;;;;;5.06;69.33;94506.75;5039239;28;20075;-61
2020/12/29 10:44:08;;;;;;;4.05;0.90;;;;;;;4.72;71.04;94517.91;5025602;28;20048;-61
2020/12/29 10:46:34;;;;;;;4.72;1.90;;;;;;;4.71;70.85;94519.81;5039346;28;20044;-60
2020/12/29 10:48:59;;;;;;;2.30;1.40;;;;;;;4.48;72.15;94517.38;5039897;28;20091;-60
2020/12/29 10:51:25;;;;;;;3.00;1.20;;;;;;;4.60;70.55;94506.22;5031680;28;20080;-61
2020/12/29 10:53:52;;;;;;;3.97;1.27;;;;;;;4.76;70.79;94502.41;5021517;28;20387;-60
2020/12/29 10:56:18;;;;;;;2.03;1.25;;;;;;;4.64;70.61;94503.53;5024166;28;20320;-62
2020/12/29 10:58:44;;;;;;;4.75;1.65;;;;;;;5.34;68.41;94506.78;5039814;28;20037;-60
2020/12/29 11:01:10;;;;;;;2.72;1.10;;;;;;;5.47;67.87;94507.19;5029804;28;20118;-61
2020/12/29 11:03:36;;;;;;;3.15;1.00;;;;;;;5.13;67.44;94506.75;5036604;28;20557;-60
2020/12/29 11:06:02;;;;;;;2.42;1.00;;;;;;;4.94;67.70;94510.59;5038497;28;20056;-61
2020/12/29 11:08:28;;;;;;;2.67;1.13;;;;;;;4.71;69.78;94516.34;5033471;28;20045;-61
2020/12/29 11:10:54;;;;;;;4.00;0.93;;;;;;;4.49;69.46;94516.25;5038855;28;20349;-59
2020/12/29 11:13:20;;;;;;;3.05;1.00;;;;;;;4.27;70.32;94523.50;5034527;28;20106;-60
2020/12/29 11:15:48;;;;;;;2.05;0.90;;;;;;;4.49;68.75;94526.31;5037999;28;21901;-61
2020/12/29 11:18:13;;;;;;;1.98;1.27;;;;;;;4.40;69.11;94524.72;5029697;28;20135;-61
2020/12/29 11:20:39;;;;;;;2.85;0.80;;;;;;;4.42;68.94;94526.28;5031315;28;20506;-61
2020/12/29 11:23:04;;;;;;;2.03;1.00;;;;;;;4.21;70.10;94522.28;5005825;28;20690;-61
2020/12/29 11:25:30;;;;;;;3.08;0.98;;;;;;;4.12;70.49;94528.03;5043984;28;20073;-61
2020/12/29 11:27:55;;;;;;;3.50;1.70;;;;;;;4.10;69.93;94527.63;5037381;28;20068;-60
2020/12/29 11:30:20;;;;;;;2.33;1.20;;;;;;;3.98;70.23;94536.88;5034196;28;20045;-60
2020/12/29 11:32:46;;;;;;;3.40;1.60;;;;;;;3.97;69.52;94526.41;5035894;28;20055;-61